Time;durP1;ratioP1;P1;durP2;ratioP2;P2;SDS_P1;SDS_P2;PMS_P1;PMS_P2;Temp;Humidity;BMP_temperature;BMP_pressure;BME280_temperature;BME280_humidity;BME280_pressure;Samples;Min_cycle;Max_cycle;Signal;HPM_P1;HPM_P2
2021/09/02 00:01:48;;;;;;;2.33;2.13;;;13.00;99.90;;;;;;6090896;23;20424;-88
2021/09/02 00:04:34;;;;;;;2.05;1.95;;;13.00;99.90;;;;;;6072480;23;20366;-88
2021/09/02 00:07:23;;;;;;;3.42;2.20;;;13.00;99.90;;;;;;6071555;23;20800;-88
2021/09/02 00:10:15;;;;;;;2.22;2.05;;;13.00;99.90;;;;;;6073960;23;20402;-89
2021/09/02 00:13:01;;;;;;;2.13;2.03;;;13.00;99.90;;;;;;6114746;23;20388;-86
2021/09/02 00:15:49;;;;;;;3.33;2.60;;;12.80;99.90;;;;;;6113483;23;20414;-88
2021/09/02 00:18:35;;;;;;;2.47;2.28;;;13.00;99.90;;;;;;6074319;23;20411;-89
2021/09/02 00:21:21;;;;;;;3.10;2.80;;;13.00;99.90;;;;;;6077438;23;20447;-92
2021/09/02 00:24:07;;;;;;;2.72;2.53;;;12.90;99.90;;;;;;6059479;23;20398;-89
2021/09/02 00:26:53;;;;;;;2.90;2.70;;;12.80;99.90;;;;;;6074186;23;20347;-88
2021/09/02 00:29:39;;;;;;;3.00;2.50;;;12.80;99.90;;;;;;6042527;23;20389;-91
2021/09/02 00:32:25;;;;;;;3.30;2.70;;;12.80;99.90;;;;;;6074563;23;20354;-88
2021/09/02 00:35:11;;;;;;;2.60;2.40;;;12.70;99.90;;;;;;6075427;23;20474;-89
2021/09/02 00:37:57;;;;;;;2.78;2.58;;;12.70;99.90;;;;;;6068935;23;20399;-89
2021/09/02 00:40:43;;;;;;;2.40;2.20;;;12.70;99.90;;;;;;6094222;23;20406;-90
2021/09/02 00:43:39;;;;;;;6.80;2.70;;;12.60;99.90;;;;;;6114162;23;20374;-89
2021/09/02 00:46:25;;;;;;;2.53;2.33;;;12.70;99.90;;;;;;6094657;23;20384;-90
2021/09/02 00:49:11;;;;;;;2.58;2.38;;;12.70;99.90;;;;;;6067472;23;20377;-89
2021/09/02 00:52:16;;;;;;;2.78;2.50;;;12.70;99.90;;;;;;6118106;23;20362;-89
2021/09/02 00:55:04;;;;;;;2.72;2.53;;;12.80;99.90;;;;;;6075287;23;20374;-90
2021/09/02 00:57:50;;;;;;;2.45;2.28;;;12.70;99.90;;;;;;6107261;23;20363;-91
2021/09/02 01:00:36;;;;;;;2.35;2.17;;;12.70;99.90;;;;;;6073823;23;20370;-90
2021/09/02 01:03:22;;;;;;;2.75;2.50;;;12.70;99.90;;;;;;6031375;23;20397;-89
2021/09/02 01:06:09;;;;;;;2.88;2.30;;;12.70;99.90;;;;;;6075563;23;20384;-90
2021/09/02 01:08:55;;;;;;;2.83;2.63;;;12.60;99.90;;;;;;6058053;23;20379;-91
2021/09/02 01:11:44;;;;;;;2.88;2.67;;;12.60;99.90;;;;;;6027950;23;20352;-92
2021/09/02 01:14:35;;;;;;;2.20;2.10;;;12.60;99.90;;;;;;6098798;23;20376;-89
2021/09/02 01:17:21;;;;;;;2.58;2.38;;;12.60;99.90;;;;;;6109002;23;20377;-90
2021/09/02 01:20:09;;;;;;;2.33;2.13;;;12.60;99.90;;;;;;6064347;23;20367;-87
2021/09/02 01:22:59;;;;;;;2.83;2.63;;;12.60;99.90;;;;;;6109761;23;20385;-90
2021/09/02 01:25:45;;;;;;;3.05;2.78;;;12.50;99.90;;;;;;6115023;23;20402;-90
2021/09/02 01:28:35;;;;;;;2.80;2.60;;;12.50;99.90;;;;;;6077022;23;20362;-90
2021/09/02 01:31:21;;;;;;;2.88;2.67;;;12.50;99.90;;;;;;6128907;23;20392;-91
2021/09/02 01:34:09;;;;;;;2.60;2.40;;;12.50;99.90;;;;;;6087363;23;20372;-89
2021/09/02 01:36:55;;;;;;;2.38;2.17;;;12.50;99.90;;;;;;6091929;23;20380;-91
2021/09/02 01:39:43;;;;;;;3.55;2.80;;;12.50;99.90;;;;;;6093072;23;20362;-89
2021/09/02 01:42:32;;;;;;;3.03;2.72;;;12.50;99.90;;;;;;6098017;23;20389;-89
2021/09/02 01:45:21;;;;;;;3.00;2.80;;;12.40;99.90;;;;;;6114335;23;20464;-91
2021/09/02 01:48:07;;;;;;;2.60;2.40;;;12.40;99.90;;;;;;6073795;23;20366;-91
2021/09/02 01:50:54;;;;;;;2.42;2.28;;;12.50;99.90;;;;;;6075343;23;20366;-88
2021/09/02 01:53:41;;;;;;;3.08;2.80;;;12.40;99.90;;;;;;6072958;23;20359;-88
2021/09/02 01:56:27;;;;;;;2.72;2.50;;;12.50;99.90;;;;;;6069585;23;20374;-89
2021/09/02 01:59:13;;;;;;;2.58;2.40;;;12.50;99.90;;;;;;6076544;23;20429;-91
2021/09/02 02:02:00;;;;;;;2.88;2.42;;;12.50;99.90;;;;;;6095821;23;20338;-87
2021/09/02 02:04:49;;;;;;;3.33;2.75;;;12.60;99.90;;;;;;6093711;23;20365;-90
2021/09/02 02:07:35;;;;;;;2.53;2.33;;;12.60;99.90;;;;;;6096647;23;20367;-88
2021/09/02 02:10:26;;;;;;;3.30;3.00;;;12.50;99.90;;;;;;6073354;23;20394;-91
2021/09/02 02:13:14;;;;;;;2.67;2.47;;;12.50;99.90;;;;;;6078790;23;20428;-91
2021/09/02 02:16:00;;;;;;;2.60;2.40;;;12.50;99.90;;;;;;6095638;23;20378;-89
2021/09/02 02:18:46;;;;;;;2.80;2.60;;;12.50;99.90;;;;;;6074371;23;20362;-90
2021/09/02 02:21:32;;;;;;;2.83;2.63;;;12.50;99.90;;;;;;6075855;23;20641;-90
2021/09/02 02:24:18;;;;;;;2.95;2.72;;;12.50;99.90;;;;;;6073762;23;20445;-92
2021/09/02 02:27:05;;;;;;;2.90;2.55;;;12.40;99.90;;;;;;6067124;23;20362;-89
2021/09/02 02:29:51;;;;;;;2.33;2.23;;;12.40;99.90;;;;;;6115903;23;20378;-91
2021/09/02 02:32:39;;;;;;;2.75;2.55;;;12.40;99.90;;;;;;6066173;23;20415;-88
2021/09/02 02:35:25;;;;;;;2.80;2.60;;;12.60;99.90;;;;;;6134154;23;20379;-91
2021/09/02 02:38:13;;;;;;;3.10;2.80;;;12.50;99.90;;;;;;6073367;23;20355;-90
2021/09/02 02:41:02;;;;;;;3.67;2.97;;;12.40;99.90;;;;;;6074015;23;20355;-92
2021/09/02 02:43:48;;;;;;;3.25;2.95;;;12.40;99.90;;;;;;6075074;23;20454;-89
2021/09/02 02:46:34;;;;;;;3.20;2.90;;;12.50;99.90;;;;;;6094604;23;20358;-87
2021/09/02 02:49:20;;;;;;;3.22;3.03;;;12.50;99.90;;;;;;6076072;23;20385;-89
2021/09/02 02:52:07;;;;;;;2.88;2.67;;;12.50;99.90;;;;;;6074191;23;20363;-91
2021/09/02 02:54:53;;;;;;;3.47;2.90;;;12.40;99.90;;;;;;6078180;23;20414;-91
2021/09/02 02:57:39;;;;;;;3.05;2.75;;;12.40;99.90;;;;;;6063611;23;20389;-87
2021/09/02 03:00:25;;;;;;;3.17;2.88;;;12.40;99.90;;;;;;6094103;23;20378;-89
2021/09/02 03:03:11;;;;;;;3.70;3.10;;;12.50;99.90;;;;;;6094190;23;20358;-91
2021/09/02 03:05:58;;;;;;;4.18;3.03;;;12.40;99.90;;;;;;6075367;23;20387;-92
2021/09/02 03:08:48;;;;;;;2.93;2.63;;;12.50;99.90;;;;;;6108516;23;20441;-91
2021/09/02 03:11:34;;;;;;;3.30;3.00;;;12.40;99.90;;;;;;6114061;23;20354;-88
2021/09/02 03:14:20;;;;;;;3.13;2.83;;;12.40;99.90;;;;;;6077429;23;20392;-89
2021/09/02 03:17:07;;;;;;;3.25;2.95;;;12.30;99.90;;;;;;6093071;23;20507;-87
2021/09/02 03:19:54;;;;;;;3.25;2.95;;;12.40;99.90;;;;;;6073837;23;20373;-88
2021/09/02 03:22:40;;;;;;;3.10;2.87;;;12.30;99.90;;;;;;6084688;23;20356;-89
2021/09/02 03:25:26;;;;;;;3.15;2.95;;;12.30;99.90;;;;;;6073725;23;20381;-89
2021/09/02 03:28:12;;;;;;;3.35;2.97;;;12.30;99.90;;;;;;6074372;23;20369;-90
2021/09/02 03:30:58;;;;;;;3.40;3.10;;;12.20;99.90;;;;;;6113973;23;20370;-91
2021/09/02 03:33:44;;;;;;;2.55;2.35;;;12.20;99.90;;;;;;6066765;23;20358;-90
2021/09/02 03:36:31;;;;;;;3.40;2.72;;;12.20;99.90;;;;;;6115693;23;20373;-90
2021/09/02 03:39:17;;;;;;;2.90;2.70;;;12.20;99.90;;;;;;6092381;23;20390;-89
2021/09/02 03:42:04;;;;;;;2.50;2.30;;;12.10;99.90;;;;;;6075674;23;20351;-89
2021/09/02 03:44:51;;;;;;;3.22;2.92;;;12.20;99.90;;;;;;6093308;23;20398;-89
2021/09/02 03:47:37;;;;;;;3.17;2.80;;;12.20;99.90;;;;;;6075353;23;20385;-89
2021/09/02 03:50:23;;;;;;;2.70;2.50;;;12.10;99.90;;;;;;6093858;23;20450;-88
2021/09/02 03:53:09;;;;;;;3.13;2.42;;;12.10;99.90;;;;;;6093514;23;20378;-86
2021/09/02 03:55:57;;;;;;;3.17;2.78;;;12.10;99.90;;;;;;6073273;23;20398;-86
2021/09/02 03:58:43;;;;;;;3.05;2.80;;;12.10;99.90;;;;;;6092308;23;20389;-90
2021/09/02 04:01:29;;;;;;;2.97;2.70;;;12.10;99.90;;;;;;6072272;23;20382;-89
2021/09/02 04:04:56;;;;;;;2.92;2.72;;;12.10;99.90;;;;;;6054030;23;20709;-89
2021/09/02 04:10:42;;;;;;;3.80;3.50;;;12.00;99.90;;;;;;6168905;23;20356;-90
2021/09/02 04:13:28;;;;;;;3.35;3.00;;;12.10;99.90;;;;;;6099392;23;20894;-89
2021/09/02 04:16:14;;;;;;;3.00;2.80;;;12.10;99.90;;;;;;6132556;23;20402;-88
2021/09/02 04:19:00;;;;;;;3.23;2.90;;;12.20;99.90;;;;;;6116364;23;20390;-89
2021/09/02 04:21:46;;;;;;;2.70;2.50;;;12.20;99.90;;;;;;6136203;23;20351;-88
2021/09/02 04:24:32;;;;;;;3.88;3.10;;;12.10;99.90;;;;;;6113212;23;20373;-89
2021/09/02 04:27:18;;;;;;;4.70;3.15;;;12.10;99.90;;;;;;6154092;23;20398;-88
2021/09/02 04:30:05;;;;;;;3.22;2.97;;;12.00;99.90;;;;;;6134591;23;20353;-89
2021/09/02 04:32:51;;;;;;;3.30;2.80;;;12.00;99.90;;;;;;6099553;23;20373;-89
2021/09/02 04:35:38;;;;;;;2.93;2.73;;;12.00;99.90;;;;;;6134475;23;20379;-88
2021/09/02 04:38:25;;;;;;;3.38;3.08;;;12.00;99.90;;;;;;6102512;23;20366;-91
2021/09/02 04:41:12;;;;;;;2.80;2.60;;;12.00;99.90;;;;;;6115116;23;20430;-91
2021/09/02 04:43:58;;;;;;;3.83;3.42;;;12.00;99.90;;;;;;6065967;23;20429;-88
2021/09/02 04:46:44;;;;;;;3.80;3.40;;;11.90;99.90;;;;;;6085404;23;20368;-89
2021/09/02 04:49:30;;;;;;;3.95;3.50;;;12.00;99.90;;;;;;6067042;23;20364;-90
2021/09/02 04:52:16;;;;;;;3.30;3.03;;;11.90;99.90;;;;;;6087000;23;20436;-90
2021/09/02 04:55:02;;;;;;;3.40;3.10;;;12.00;99.90;;;;;;6050640;23;20381;-89
2021/09/02 04:57:49;;;;;;;3.08;2.70;;;12.00;99.90;;;;;;6091992;23;20369;-87
2021/09/02 05:06:40;;;;;;;3.20;2.90;;;12.10;99.90;;;;;;6157392;23;20389;-89
2021/09/02 05:09:28;;;;;;;3.30;3.00;;;12.10;99.90;;;;;;6072592;23;20364;-90
2021/09/02 07:01:50;;;;;;;4.00;3.70;;;15.80;99.90;;;;;;6167287;23;20375;-87
2021/09/02 07:04:37;;;;;;;4.22;3.83;;;15.80;99.90;;;;;;6100232;23;20366;-88
2021/09/02 07:07:23;;;;;;;3.40;3.10;;;15.90;99.90;;;;;;6117945;23;20355;-88
2021/09/02 07:10:12;;;;;;;4.10;3.42;;;16.00;99.90;;;;;;6018913;23;20373;-89
2021/09/02 07:18:40;;;;;;;3.47;3.17;;;16.30;99.90;;;;;;6172773;23;20367;-91
2021/09/02 14:29:36;;;;;;;3.80;1.85;;;27.00;99.90;;;;;;6174413;23;20370;-93
2021/09/02 14:41:47;;;;;;;3.47;1.80;;;27.90;99.90;;;;;;6093775;23;20362;-90
2021/09/02 14:44:40;;;;;;;2.38;2.17;;;27.50;99.90;;;;;;6109939;23;20378;-90
2021/09/02 14:48:10;;;;;;;3.03;1.60;;;27.80;99.90;;;;;;6073197;23;20392;-91
2021/09/02 18:03:26;;;;;;;2.40;1.50;;;19.90;99.90;;;;;;6152776;23;20383;-82
2021/09/02 18:06:12;;;;;;;2.08;1.75;;;19.70;99.90;;;;;;6087817;23;20931;-86
2021/09/02 18:08:57;;;;;;;1.80;1.70;;;19.70;99.90;;;;;;6089841;23;20367;-86
2021/09/02 18:11:43;;;;;;;1.88;1.77;;;19.60;99.90;;;;;;6110931;23;20590;-80
2021/09/02 18:14:30;;;;;;;1.90;1.70;;;19.50;99.90;;;;;;6111891;23;20359;-81
2021/09/02 18:17:16;;;;;;;1.70;1.60;;;19.40;99.90;;;;;;6152625;23;20470;-84
2021/09/02 18:20:02;;;;;;;1.83;1.73;;;19.40;99.90;;;;;;6112374;23;20412;-83
2021/09/02 18:22:48;;;;;;;2.38;2.17;;;19.30;99.90;;;;;;6111820;23;20446;-87
2021/09/02 18:25:34;;;;;;;1.83;1.73;;;19.20;99.90;;;;;;6133263;23;20374;-84
2021/09/02 18:28:20;;;;;;;1.85;1.75;;;19.10;99.90;;;;;;6111903;23;20374;-84
2021/09/02 18:31:06;;;;;;;1.67;1.58;;;19.00;99.90;;;;;;6130990;23;20478;-83
2021/09/02 18:33:52;;;;;;;2.13;2.03;;;18.90;99.90;;;;;;6114900;23;20415;-84
2021/09/02 18:36:41;;;;;;;1.98;1.88;;;18.80;99.90;;;;;;6127642;23;20410;-81
2021/09/02 18:39:27;;;;;;;2.10;1.90;;;18.60;99.90;;;;;;6122688;23;20397;-80
2021/09/02 18:42:19;;;;;;;2.08;1.88;;;18.50;99.90;;;;;;6085960;23;20359;-81
2021/09/02 18:45:05;;;;;;;2.63;2.42;;;18.40;99.90;;;;;;6118936;23;20374;-82
2021/09/02 18:47:54;;;;;;;2.78;2.22;;;18.30;99.90;;;;;;6138860;23;20371;-81
2021/09/02 18:50:40;;;;;;;2.35;2.15;;;18.20;99.90;;;;;;6156258;23;20790;-80
2021/09/02 18:53:26;;;;;;;2.03;1.92;;;18.20;99.90;;;;;;6141979;23;20494;-83
2021/09/02 18:56:12;;;;;;;2.03;1.80;;;18.00;99.90;;;;;;6121985;23;20390;-84
2021/09/02 18:58:58;;;;;;;2.78;2.20;;;18.00;99.90;;;;;;6142441;23;20415;-85
2021/09/02 19:01:45;;;;;;;1.60;1.50;;;17.80;99.90;;;;;;6123851;23;20748;-83
2021/09/02 19:04:32;;;;;;;2.55;2.00;;;17.80;99.90;;;;;;6126673;23;20379;-88
2021/09/02 19:07:19;;;;;;;2.50;2.25;;;17.80;99.90;;;;;;6113609;23;20367;-80
2021/09/02 19:10:05;;;;;;;2.27;2.13;;;17.70;99.90;;;;;;6131445;23;20374;-80
2021/09/02 19:12:51;;;;;;;2.17;1.97;;;17.60;99.90;;;;;;6128474;23;20375;-82
2021/09/02 19:15:39;;;;;;;2.47;2.13;;;17.50;99.90;;;;;;6108278;23;20438;-78
2021/09/02 19:18:25;;;;;;;2.33;2.15;;;17.50;99.90;;;;;;6131636;23;20893;-82
2021/09/02 19:21:11;;;;;;;1.98;1.88;;;17.50;99.90;;;;;;6129990;23;20439;-79
2021/09/02 19:23:58;;;;;;;2.45;2.15;;;17.40;99.90;;;;;;6130487;23;20370;-84
2021/09/02 19:26:44;;;;;;;2.30;2.15;;;17.40;99.90;;;;;;6130091;23;20363;-79
2021/09/02 19:29:45;;;;;;;3.42;2.53;;;17.30;99.90;;;;;;6126687;23;20363;-82
2021/09/02 19:32:31;;;;;;;2.25;2.05;;;17.20;99.90;;;;;;6128961;23;20729;-83
2021/09/02 19:35:18;;;;;;;2.35;2.15;;;17.10;99.90;;;;;;6113328;23;20383;-81
2021/09/02 19:38:05;;;;;;;2.38;1.85;;;17.10;99.90;;;;;;6110367;23;20385;-79
2021/09/02 19:40:52;;;;;;;2.45;2.25;;;17.00;99.90;;;;;;6109075;23;20371;-79
2021/09/02 19:43:38;;;;;;;2.63;2.42;;;17.00;99.90;;;;;;6127195;23;20371;-79
2021/09/02 19:46:24;;;;;;;2.78;2.20;;;16.80;99.90;;;;;;6088078;23;20425;-80
2021/09/02 19:49:10;;;;;;;3.05;2.40;;;16.80;99.90;;;;;;6130394;23;20363;-80
2021/09/02 19:51:58;;;;;;;2.67;2.47;;;16.60;99.90;;;;;;6107833;23;24154;-83
2021/09/02 19:54:44;;;;;;;1.90;1.80;;;16.50;99.90;;;;;;6108625;23;20394;-82
2021/09/02 19:57:41;;;;;;;1.93;1.83;;;16.40;99.90;;;;;;6117962;23;20385;-81
2021/09/02 20:00:28;;;;;;;2.40;2.20;;;16.40;99.90;;;;;;6138907;23;20366;-82
2021/09/02 20:03:31;;;;;;;2.92;2.60;;;16.40;99.90;;;;;;6115335;23;20410;-80
2021/09/02 20:06:22;;;;;;;3.15;2.55;;;16.40;99.90;;;;;;6135824;23;20393;-84
2021/09/02 20:09:08;;;;;;;6.43;2.60;;;16.40;99.90;;;;;;6112292;23;20476;-82
2021/09/02 20:11:55;;;;;;;2.70;2.38;;;16.40;99.90;;;;;;6131813;23;20426;-79
2021/09/02 20:14:42;;;;;;;2.05;1.95;;;16.40;99.90;;;;;;6131258;23;20426;-79
2021/09/02 20:17:28;;;;;;;2.63;2.28;;;16.30;99.90;;;;;;6111936;23;20940;-81
2021/09/02 20:20:15;;;;;;;2.50;2.30;;;16.20;99.90;;;;;;6110788;23;20378;-79
2021/09/02 20:23:05;;;;;;;2.20;2.10;;;16.10;99.90;;;;;;6131859;23;20436;-80
2021/09/02 20:25:51;;;;;;;3.00;2.20;;;16.00;99.90;;;;;;6110523;23;20367;-84
2021/09/02 20:28:37;;;;;;;3.08;2.33;;;16.00;99.90;;;;;;6090988;23;20390;-79
2021/09/02 20:31:25;;;;;;;1.95;1.83;;;15.90;99.90;;;;;;6111565;23;20485;-81
2021/09/02 20:34:13;;;;;;;2.28;2.08;;;15.80;99.90;;;;;;6110155;23;20494;-81
2021/09/02 20:37:01;;;;;;;3.72;2.30;;;15.70;99.90;;;;;;6111061;23;20375;-78
2021/09/02 20:39:49;;;;;;;2.33;2.13;;;15.80;99.90;;;;;;6130837;23;21146;-81
2021/09/02 20:42:35;;;;;;;3.53;2.60;;;15.60;99.90;;;;;;6131052;23;20402;-81
2021/09/02 20:45:22;;;;;;;2.42;2.22;;;15.50;99.90;;;;;;6131224;23;20458;-80
2021/09/02 20:48:13;;;;;;;2.38;2.17;;;15.50;99.90;;;;;;6110635;23;20363;-80
2021/09/02 20:50:59;;;;;;;4.35;2.50;;;15.50;99.90;;;;;;6111278;23;20370;-80
2021/09/02 20:53:45;;;;;;;3.45;2.60;;;15.40;99.90;;;;;;6129385;23;20371;-81
2021/09/02 20:56:32;;;;;;;2.58;2.38;;;15.40;99.90;;;;;;6110245;23;20383;-79
2021/09/02 20:59:18;;;;;;;2.65;2.45;;;15.30;99.90;;;;;;6114052;23;20363;-82
2021/09/02 21:02:06;;;;;;;2.60;2.40;;;15.20;99.90;;;;;;6089970;23;20375;-79
2021/09/02 21:04:52;;;;;;;2.35;2.15;;;15.10;99.90;;;;;;6131992;23;20450;-79
2021/09/02 21:07:42;;;;;;;2.17;2.05;;;15.10;99.90;;;;;;6092820;23;20385;-88
2021/09/02 21:10:28;;;;;;;2.47;2.28;;;15.00;99.90;;;;;;6122701;23;20442;-81
2021/09/02 21:13:19;;;;;;;2.23;2.07;;;15.00;99.90;;;;;;6140216;23;20394;-80
2021/09/02 21:16:05;;;;;;;2.47;2.28;;;15.00;99.90;;;;;;6136231;23;20434;-81
2021/09/02 21:18:51;;;;;;;2.58;2.38;;;15.00;99.90;;;;;;6134013;23;20752;-83
2021/09/02 21:21:41;;;;;;;1.90;1.80;;;14.90;99.90;;;;;;6114097;23;20783;-80
2021/09/02 21:24:40;;;;;;;2.00;1.90;;;14.90;99.90;;;;;;6114656;23;20371;-80
2021/09/02 21:27:45;;;;;;;2.72;2.40;;;14.90;99.90;;;;;;6130900;23;20375;-79
2021/09/02 21:30:39;;;;;;;2.33;2.13;;;14.80;99.90;;;;;;6150559;23;20736;-81
2021/09/02 21:33:49;;;;;;;3.85;3.50;;;14.80;99.90;;;;;;6132351;23;20471;-81
2021/09/02 21:36:35;;;;;;;3.80;3.00;;;14.70;99.90;;;;;;6111321;23;20848;-88
2021/09/02 21:39:21;;;;;;;2.63;2.43;;;14.60;99.90;;;;;;6160521;23;20367;-87
2021/09/02 21:42:09;;;;;;;2.90;2.50;;;14.60;99.90;;;;;;6147572;23;20359;-87
2021/09/02 21:44:59;;;;;;;4.50;2.40;;;14.50;99.90;;;;;;6127724;23;20378;-88
2021/09/02 21:47:49;;;;;;;2.13;2.00;;;14.50;99.90;;;;;;6148898;23;20381;-88
2021/09/02 21:50:40;;;;;;;2.17;2.07;;;14.40;99.90;;;;;;6148999;23;20375;-87
2021/09/02 21:53:26;;;;;;;2.30;2.13;;;14.40;99.90;;;;;;6149494;23;20864;-89
2021/09/02 21:56:15;;;;;;;2.80;2.47;;;14.30;99.90;;;;;;6128579;23;20414;-90
2021/09/02 21:59:02;;;;;;;2.88;2.67;;;14.20;99.90;;;;;;6129756;23;20386;-90
2021/09/02 22:01:49;;;;;;;2.55;2.35;;;14.10;99.90;;;;;;6132200;23;20406;-89
2021/09/02 22:04:35;;;;;;;2.88;2.53;;;14.10;99.90;;;;;;6149395;23;20367;-88
2021/09/02 22:07:21;;;;;;;2.45;2.25;;;14.00;99.90;;;;;;6130167;23;20452;-87
2021/09/02 22:10:07;;;;;;;2.63;2.42;;;14.00;99.90;;;;;;6149793;23;20406;-90
2021/09/02 22:12:53;;;;;;;2.95;2.75;;;14.00;99.90;;;;;;6110433;23;20359;-88
2021/09/02 22:15:39;;;;;;;4.35;2.47;;;14.00;99.90;;;;;;6131278;23;20442;-87
2021/09/02 22:18:33;;;;;;;2.53;2.33;;;14.10;99.90;;;;;;6130031;23;20371;-88
2021/09/02 22:21:20;;;;;;;4.07;2.83;;;13.90;99.90;;;;;;6128811;23;20355;-90
2021/09/02 22:24:08;;;;;;;2.60;2.40;;;13.90;99.90;;;;;;6132771;23;20386;-88
2021/09/02 22:26:53;;;;;;;2.83;2.63;;;14.00;99.90;;;;;;6133278;23;20365;-87
2021/09/02 22:29:39;;;;;;;2.80;2.55;;;13.70;99.90;;;;;;6133474;23;20382;-86
2021/09/02 22:32:27;;;;;;;2.63;2.28;;;13.80;99.90;;;;;;6132694;23;20386;-89
2021/09/02 22:35:13;;;;;;;2.75;2.50;;;13.60;99.90;;;;;;6155367;23;20374;-87
2021/09/02 22:37:59;;;;;;;2.50;2.30;;;13.70;99.90;;;;;;6134704;23;20363;-89
2021/09/02 22:40:45;;;;;;;2.45;2.25;;;13.60;99.90;;;;;;6133087;23;20452;-90
2021/09/02 22:43:31;;;;;;;2.70;2.50;;;13.60;99.90;;;;;;6134437;23;20419;-88
2021/09/02 22:46:17;;;;;;;3.00;2.78;;;13.60;99.90;;;;;;6134183;23;20351;-89
2021/09/02 22:49:04;;;;;;;2.83;2.60;;;13.60;99.90;;;;;;6114932;23;20357;-88
2021/09/02 22:51:52;;;;;;;2.42;2.22;;;13.50;99.90;;;;;;6113667;23;20378;-89
2021/09/02 22:54:38;;;;;;;3.10;2.80;;;13.60;99.90;;;;;;6133954;23;20358;-87
2021/09/02 22:57:24;;;;;;;2.78;2.47;;;13.60;99.90;;;;;;6131908;23;20446;-91
2021/09/02 23:00:10;;;;;;;2.55;2.35;;;13.50;99.90;;;;;;6133764;23;20486;-88
2021/09/02 23:02:56;;;;;;;3.05;2.60;;;13.50;99.90;;;;;;6154217;23;20381;-90
2021/09/02 23:05:45;;;;;;;3.35;2.92;;;13.50;99.90;;;;;;6134428;23;20412;-86
2021/09/02 23:08:41;;;;;;;2.85;2.65;;;13.40;99.90;;;;;;6173591;23;20374;-86
2021/09/02 23:11:39;;;;;;;4.80;2.75;;;13.30;99.90;;;;;;6132562;23;20351;-87
2021/09/02 23:14:27;;;;;;;3.47;2.42;;;13.30;99.90;;;;;;6154542;23;20375;-88
2021/09/02 23:17:22;;;;;;;2.60;2.40;;;13.30;99.90;;;;;;6134577;23;20423;-89
2021/09/02 23:20:11;;;;;;;2.53;2.33;;;13.20;99.90;;;;;;6134456;23;20359;-89
2021/09/02 23:23:00;;;;;;;2.38;2.17;;;13.20;99.90;;;;;;6133965;23;20355;-89
2021/09/02 23:25:46;;;;;;;2.20;2.03;;;13.10;99.90;;;;;;6156603;23;20357;-87
2021/09/02 23:28:33;;;;;;;2.40;2.20;;;13.10;99.90;;;;;;6136182;23;20366;-89
2021/09/02 23:31:19;;;;;;;2.70;2.50;;;13.00;99.90;;;;;;6136544;23;20363;-89
2021/09/02 23:34:06;;;;;;;2.70;2.50;;;12.90;99.90;;;;;;6129736;23;20370;-83
2021/09/02 23:36:52;;;;;;;2.50;2.30;;;13.00;99.90;;;;;;6126145;23;20382;-81
2021/09/02 23:39:38;;;;;;;2.50;2.30;;;12.80;99.90;;;;;;6152513;23;20473;-85
2021/09/02 23:42:24;;;;;;;2.60;2.40;;;12.90;99.90;;;;;;6135648;23;20812;-89
2021/09/02 23:45:10;;;;;;;2.45;2.25;;;12.90;99.90;;;;;;6136558;23;20343;-87
2021/09/02 23:47:58;;;;;;;2.13;2.03;;;12.90;99.90;;;;;;6134422;23;20378;-88
2021/09/02 23:50:44;;;;;;;2.33;2.10;;;12.80;99.90;;;;;;6135842;23;20351;-88
2021/09/02 23:53:30;;;;;;;2.30;2.10;;;12.70;99.90;;;;;;6154958;23;20438;-85
2021/09/02 23:56:16;;;;;;;3.60;2.40;;;12.70;99.90;;;;;;6135622;23;20426;-87
2021/09/02 23:59:02;;;;;;;2.50;2.30;;;12.60;99.90;;;;;;6153307;23;20343;-85
